Aérodrome :
LOGIN :

S'inscrire | Disclaimer

   EN    FR    IT 

 










Légende :    VFR   VFR Marginal   IFR   IFR Intensif   IFR Très Intensif
Visi : 
Plafond : 
>= 8 km
>= 3000ft
5 à 8 km
1000 à 3000 ft
1500m à 5 km
500 à 1000 ft
800 à 1500m
200 à 500 ft
< 800m
< 200 ft
Symboles :   Orages  Brouillard  Fortes neiges  Fortes précipitations  Vent > 20 kt
SIGMETs :   Divers  Orages  Givrage  Turbulence  Onde Orograph.  Cendres Volcan.






- Altitude de l'aérodrome : 242 ft
- Code IATA : DUB


EIDW - Dublin

DERNIER METAR :
  • 180600Z 28007KT 9999 FEW018 M02/M02 Q1019 NOSIG

METARs EXPIRÉS :
  • 180530Z 28007KT 9999 FEW018 M01/M02 Q1019 NOSIG
  • 180500Z 28009KT 9999 FEW018 M01/M01 Q1020 NOSIG
  • 180430Z 28006KT 9999 FEW018 M00/M01 Q1020 NOSIG
  • 180400Z 27005KT 9999 FEW018 M00/M01 Q1020 NOSIG
  • 180330Z 25005KT 9999 FEW018 M01/M02 Q1019 NOSIG

TAF TAF EIDW
Valide du 18 à 06h jusqu'au 19 à 06h UTC


180500Z 1806/1906 27008KT 9999 FEW020
BECMG 1811/1813 VRB03KT
BECMG 1816/1818 14005KT
BECMG 1903/1906 16012KT



MET'MAP, la Météo Aéronautique d'un coup d'oeil ! - Copyright ORBIFLY Décembre 2007 - Disclaimer

ORBIFLY MET'MAP TEAM :

Programmation & Développement : Alexandra Zaïnal
Conception & Développement : Baudouin d'Aumeries
Co-Programmation & Développement : Marc-Olivier Méhu
Soutien technique & logistique : Manuel Goepfert

Contact : metmap@orbifly.com




SOURCES & CREDITS :

   NOAA